Portada
METAR-TAF:

METAR-TAF

Aeropuertos :

Aeropuerto de Bérgamo-Orio al Serio

Bérgamo, Italia

latitud: 45-40N, longitud: 009-42E, altitud: 238 m

Observación

El informe se hizo hace 36 minutos, a las 11:20 UTC
Viento 6 kt del suroeste, variando entre sur y oeste-suroeste
Temperatura 12°C
Humedad 24%
Presión 1025 hPa
Visibilidad 10 km o más
sin nubes por debajo de 1500 m y sin presencia de cumulonimbus.

METAR: LIME 201120Z 22006KT 190V250 CAVOK 12/M08 Q1025 NOSIG

Hora: 12:56 (11:56 UTC)

Pronóstico

El informe se hizo hace 6 horas y 56 minutos, a las 05:00 UTC
Pronóstico válido del 20 a las 06 UTC al 21 a las 06 UTC
Viento 8 kt del norte
Visibilidad 10 km o más
sin nubes por debajo de 1500 m y sin presencia de cumulonimbus.

TAF: LIME 200500Z 2006/2106 35008KT CAVOK

Observaciones y pronósticos meteorológicos de más de 4000 aeropuertos (mensajes METAR y TAF).

Los puntos amarillos y rojos representan las estaciones disponibles.

Ponga el ratón en el punto deseado para ver el nombre de la estación.

Haga clic para ver las observaciones y los pronósticos meteorológicos.

Para cambiar el mapa : haga clic en los botones verdes con una cruz de color negro para hacer un zoom, en el botón verde con un guión para alejar o en las flechas verdes para mapas adyacentes.


METAR-TAF: